Wh Blount — C6JT8 — position and weather

sailwx.info

Track history (hours):
 
Tides and Currents Weather Stations Pressure Air Temp Water Temp Dewpoint Dewpoint Depression Visibility Wind Speed Wind Dir Waves Ship Positions

Wh Blount

Last reported at 2018-Jun-23 08:10 UTC. Time now 2018-Jun-23 12:00 UTC.
Position N 29°02' W 094°12'.

Length 225 m; draft 7.9 m.

Type: Cargo ship. MMSI: 308271000.

Date/timePositionNaut miles runAvg speedWind from/ knotsBaromVisibWave heightAir tempDewpointWater temp
2018-Jun-23 08:10N 29°02' W 094°12'212.8
2018-Jun-23 07:58N 29°03' W 094°15'1312.8
2018-Jun-23 06:57N 29°10' W 094°28'612.6
2018-Jun-23 06:30N 29°13' W 094°32'612.1
2018-Jun-23 05:59N 29°18' W 094°38'4 9.3
2018-Jun-23 05:31N 29°20' W 094°42'5 9.7
2018-Jun-23 05:00N 29°21' W 094°47'510.4
2018-Jun-23 04:31N 29°26' W 094°50'610.7
2018-Jun-23 03:59N 29°31' W 094°53'510.3
2018-Jun-23 03:30N 29°35' W 094°56'510.1
2018-Jun-23 03:01N 29°39' W 094°58'4 8.1
2018-Jun-23 02:30N 29°43' W 095°01'5 7.0
2018-Jun-23 01:50N 29°46' W 095°05'4 0.2
2018-Jun-22 07:39N 29°45' W 095°10'0 0.0
2018-Jun-22 06:15N 29°45' W 095°10'0 0.0
2018-Jun-22 06:00N 29°45' W 095°10'0 0.0
2018-Jun-22 05:30N 29°45' W 095°10'0 0.0
2018-Jun-22 04:30N 29°45' W 095°10'0 0.0
2018-Jun-22 03:51N 29°45' W 095°10'2 0.1
2018-Jun-21 08:58N 29°44' W 095°08'3 5.3
2018-Jun-21 08:29N 29°45' W 095°06'2 4.2
2018-Jun-21 08:00N 29°44' W 095°04'2 5.0
2018-Jun-21 07:31N 29°43' W 095°01'3 6.6
2018-Jun-21 07:00N 29°40' W 094°59'4 8.8
2018-Jun-21 06:30N 29°36' W 094°57'510.0
2018-Jun-21 05:58N 29°32' W 094°54'510.0
2018-Jun-21 05:30N 29°28' W 094°51'5 9.7
2018-Jun-21 05:00N 29°23' W 094°49'5 8.3
2018-Jun-21 04:26N 29°21' W 094°44'27011.5
2018-Jun-20 05:00N 26°18' W 091°00'11710.6 200 1014.410.8 26.023.1
2018-Jun-19 18:00N 25°06' W 089°18'23813.2 130 / 111016.810.8 26.023.1
2018-Jun-19 00:00N 22°00' W 086°36'7911.8 130 / 101015.610.8 32.025.0
2018-Jun-18 17:19N 20°43' W 086°53'515.4
2018-Jun-18 17:01N 20°39' W 086°56'714.3
2018-Jun-18 16:30N 20°36' W 087°03'5 0.3
2018-Jun-17 23:44N 20°34' W 087°08'0 1.2
2018-Jun-17 23:25N 20°34' W 087°07'1 2.9
2018-Jun-17 23:00N 20°35' W 087°06'1 3.0
2018-Jun-17 22:31N 20°35' W 087°05'5 5.6
2018-Jun-17 21:38N 20°38' W 087°01'1 5.7
2018-Jun-17 21:31N 20°39' W 086°60'142 9.2
2018-Jun-17 06:00N 23°00' W 087°18'6911.5 130 / 261015.310.8 26.523.0
2018-Jun-17 00:00N 23°48' W 088°12'30212.6 140 / 51013.310.8 26.522.8
2018-Jun-16 00:00N 27°24' W 092°06'15012.1 140 / 121013.810.8 28.023.7
2018-Jun-15 11:40N 29°39' W 093°20'211.7
2018-Jun-15 11:29N 29°41' W 093°20'5 9.9
2018-Jun-15 11:00N 29°46' W 093°21'3 5.5
2018-Jun-15 10:30N 29°48' W 093°21'3 5.4
2018-Jun-15 10:00N 29°51' W 093°21'4 7.4
2018-Jun-15 09:30N 29°55' W 093°20'4 8.8
2018-Jun-15 09:00N 29°59' W 093°20'3 6.4
2018-Jun-15 08:30N 30°02' W 093°20'3 6.9
2018-Jun-15 08:00N 30°06' W 093°20'3 5.8
2018-Jun-15 07:30N 30°09' W 093°20'2 3.2
2018-Jun-15 07:00N 30°10' W 093°19'2 3.6
2018-Jun-15 06:30N 30°12' W 093°18'2 4.1
2018-Jun-15 06:00N 30°13' W 093°16'1 1.8
2018-Jun-15 05:30N 30°13' W 093°15'1 1.6
2018-Jun-15 05:00N 30°14' W 093°15'0 0.1
2018-Jun-15 04:29N 30°14' W 093°15'0 0.0
2018-Jun-15 03:59N 30°14' W 093°15'0 0.0
2018-Jun-15 03:29N 30°14' W 093°15'0 0.0
2018-Jun-15 02:59N 30°14' W 093°15'0 0.0
2018-Jun-15 02:29N 30°14' W 093°15'0 0.0
2018-Jun-15 01:59N 30°14' W 093°15'0 0.0
2018-Jun-15 01:26N 30°14' W 093°15'0 0.0
2018-Jun-15 00:59N 30°14' W 093°15'0 0.0
2018-Jun-15 00:29N 30°14' W 093°15'0 0.0
2018-Jun-14 23:59N 30°14' W 093°15'0 0.0
2018-Jun-14 23:29N 30°14' W 093°15'0 0.0
2018-Jun-14 22:59N 30°14' W 093°15'0 0.0
2018-Jun-14 22:26N 30°14' W 093°15'0 0.0
2018-Jun-14 21:59N 30°14' W 093°15'0 0.0
2018-Jun-14 21:29N 30°14' W 093°15'0 0.0
2018-Jun-14 20:58N 30°14' W 093°15'0 0.0
2018-Jun-14 20:28N 30°14' W 093°15'0 0.0
2018-Jun-14 19:55N 30°14' W 093°15'0 0.0
2018-Jun-14 19:28N 30°14' W 093°15'0 0.0
2018-Jun-14 18:58N 30°14' W 093°15'0 0.0
2018-Jun-14 18:28N 30°14' W 093°15'0 0.0
2018-Jun-14 17:58N 30°14' W 093°15'0 0.0
2018-Jun-14 17:28N 30°14' W 093°15'0 0.0
2018-Jun-14 16:58N 30°14' W 093°15'0 0.0
2018-Jun-14 16:28N 30°14' W 093°15'0 0.0
2018-Jun-14 15:58N 30°14' W 093°15'0 0.0
2018-Jun-14 15:25N 30°14' W 093°15'0 0.0
2018-Jun-14 14:58N 30°14' W 093°15'0 0.2
2018-Jun-14 14:30N 30°14' W 093°15'1 1.4
2018-Jun-14 14:00N 30°13' W 093°14'1 2.2
2018-Jun-14 13:30N 30°13' W 093°16'2 4.9
2018-Jun-14 13:00N 30°11' W 093°18'2 3.9
2018-Jun-14 12:30N 30°10' W 093°19'3 5.0
2018-Jun-14 12:00N 30°07' W 093°20'3 6.0
2018-Jun-14 11:30N 30°04' W 093°20'4 7.8
2018-Jun-14 11:00N 30°01' W 093°20'4 7.4
2018-Jun-14 10:30N 29°57' W 093°20'4 8.1
2018-Jun-14 10:00N 29°53' W 093°21'510.6
2018-Jun-14 09:30N 29°47' W 093°21'  
Track history (hours):
 
Tides and Currents Weather Stations Pressure Air Temp Water Temp Dewpoint Dewpoint Depression Visibility Wind Speed Wind Dir Waves Ship Positions

Wh Blount

Last reported at 2018-Jun-23 08:10 UTC. Time now 2018-Jun-23 12:00 UTC.
Position N 29°02' W 094°12'.

Length 225 m; draft 7.9 m.

Type: Cargo ship. MMSI: 308271000.

Date/timePositionNaut miles runAvg speedWind from/ knotsBaromVisibWave heightAir tempDewpointWater temp
2018-Jun-23 08:10N 29°02' W 094°12'212.8
2018-Jun-23 07:58N 29°03' W 094°15'1312.8
2018-Jun-23 06:57N 29°10' W 094°28'612.6
2018-Jun-23 06:30N 29°13' W 094°32'612.1
2018-Jun-23 05:59N 29°18' W 094°38'4 9.3
2018-Jun-23 05:31N 29°20' W 094°42'5 9.7
2018-Jun-23 05:00N 29°21' W 094°47'510.4
2018-Jun-23 04:31N 29°26' W 094°50'610.7
2018-Jun-23 03:59N 29°31' W 094°53'510.3
2018-Jun-23 03:30N 29°35' W 094°56'510.1
2018-Jun-23 03:01N 29°39' W 094°58'4 8.1
2018-Jun-23 02:30N 29°43' W 095°01'5 7.0
2018-Jun-23 01:50N 29°46' W 095°05'4 0.2
2018-Jun-22 07:39N 29°45' W 095°10'0 0.0
2018-Jun-22 06:15N 29°45' W 095°10'0 0.0
2018-Jun-22 06:00N 29°45' W 095°10'0 0.0
2018-Jun-22 05:30N 29°45' W 095°10'0 0.0
2018-Jun-22 04:30N 29°45' W 095°10'0 0.0
2018-Jun-22 03:51N 29°45' W 095°10'2 0.1
2018-Jun-21 08:58N 29°44' W 095°08'3 5.3
2018-Jun-21 08:29N 29°45' W 095°06'2 4.2
2018-Jun-21 08:00N 29°44' W 095°04'2 5.0
2018-Jun-21 07:31N 29°43' W 095°01'3 6.6
2018-Jun-21 07:00N 29°40' W 094°59'4 8.8
2018-Jun-21 06:30N 29°36' W 094°57'510.0
2018-Jun-21 05:58N 29°32' W 094°54'510.0
2018-Jun-21 05:30N 29°28' W 094°51'5 9.7
2018-Jun-21 05:00N 29°23' W 094°49'5 8.3
2018-Jun-21 04:26N 29°21' W 094°44'27011.5
2018-Jun-20 05:00N 26°18' W 091°00'11710.6 200 1014.410.8 26.023.1
2018-Jun-19 18:00N 25°06' W 089°18'23813.2 130 / 111016.810.8 26.023.1
2018-Jun-19 00:00N 22°00' W 086°36'7911.8 130 / 101015.610.8 32.025.0
2018-Jun-18 17:19N 20°43' W 086°53'515.4
2018-Jun-18 17:01N 20°39' W 086°56'714.3
2018-Jun-18 16:30N 20°36' W 087°03'5 0.3
2018-Jun-17 23:44N 20°34' W 087°08'0 1.2
2018-Jun-17 23:25N 20°34' W 087°07'1 2.9
2018-Jun-17 23:00N 20°35' W 087°06'1 3.0
2018-Jun-17 22:31N 20°35' W 087°05'5 5.6
2018-Jun-17 21:38N 20°38' W 087°01'1 5.7
2018-Jun-17 21:31N 20°39' W 086°60'142 9.2
2018-Jun-17 06:00N 23°00' W 087°18'6911.5 130 / 261015.310.8 26.523.0
2018-Jun-17 00:00N 23°48' W 088°12'30212.6 140 / 51013.310.8 26.522.8
2018-Jun-16 00:00N 27°24' W 092°06'15012.1 140 / 121013.810.8 28.023.7
2018-Jun-15 11:40N 29°39' W 093°20'211.7
2018-Jun-15 11:29N 29°41' W 093°20'5 9.9
2018-Jun-15 11:00N 29°46' W 093°21'3 5.5
2018-Jun-15 10:30N 29°48' W 093°21'3 5.4
2018-Jun-15 10:00N 29°51' W 093°21'4 7.4
2018-Jun-15 09:30N 29°55' W 093°20'4 8.8
2018-Jun-15 09:00N 29°59' W 093°20'3 6.4
2018-Jun-15 08:30N 30°02' W 093°20'3 6.9
2018-Jun-15 08:00N 30°06' W 093°20'3 5.8
2018-Jun-15 07:30N 30°09' W 093°20'2 3.2
2018-Jun-15 07:00N 30°10' W 093°19'2 3.6
2018-Jun-15 06:30N 30°12' W 093°18'2 4.1
2018-Jun-15 06:00N 30°13' W 093°16'1 1.8
2018-Jun-15 05:30N 30°13' W 093°15'1 1.6
2018-Jun-15 05:00N 30°14' W 093°15'0 0.1
2018-Jun-15 04:29N 30°14' W 093°15'0 0.0
2018-Jun-15 03:59N 30°14' W 093°15'0 0.0
2018-Jun-15 03:29N 30°14' W 093°15'0 0.0
2018-Jun-15 02:59N 30°14' W 093°15'0 0.0
2018-Jun-15 02:29N 30°14' W 093°15'0 0.0
2018-Jun-15 01:59N 30°14' W 093°15'0 0.0
2018-Jun-15 01:26N 30°14' W 093°15'0 0.0
2018-Jun-15 00:59N 30°14' W 093°15'0 0.0
2018-Jun-15 00:29N 30°14' W 093°15'0 0.0
2018-Jun-14 23:59N 30°14' W 093°15'0 0.0
2018-Jun-14 23:29N 30°14' W 093°15'0 0.0
2018-Jun-14 22:59N 30°14' W 093°15'0 0.0
2018-Jun-14 22:26N 30°14' W 093°15'0 0.0
2018-Jun-14 21:59N 30°14' W 093°15'0 0.0
2018-Jun-14 21:29N 30°14' W 093°15'0 0.0
2018-Jun-14 20:58N 30°14' W 093°15'0 0.0
2018-Jun-14 20:28N 30°14' W 093°15'0 0.0
2018-Jun-14 19:55N 30°14' W 093°15'0 0.0
2018-Jun-14 19:28N 30°14' W 093°15'0 0.0
2018-Jun-14 18:58N 30°14' W 093°15'0 0.0
2018-Jun-14 18:28N 30°14' W 093°15'0 0.0
2018-Jun-14 17:58N 30°14' W 093°15'0 0.0
2018-Jun-14 17:28N 30°14' W 093°15'0 0.0
2018-Jun-14 16:58N 30°14' W 093°15'0 0.0
2018-Jun-14 16:28N 30°14' W 093°15'0 0.0
2018-Jun-14 15:58N 30°14' W 093°15'0 0.0
2018-Jun-14 15:25N 30°14' W 093°15'0 0.0
2018-Jun-14 14:58N 30°14' W 093°15'0 0.2
2018-Jun-14 14:30N 30°14' W 093°15'1 1.4
2018-Jun-14 14:00N 30°13' W 093°14'1 2.2
2018-Jun-14 13:30N 30°13' W 093°16'2 4.9
2018-Jun-14 13:00N 30°11' W 093°18'2 3.9
2018-Jun-14 12:30N 30°10' W 093°19'3 5.0
2018-Jun-14 12:00N 30°07' W 093°20'3 6.0
2018-Jun-14 11:30N 30°04' W 093°20'4 7.8
2018-Jun-14 11:00N 30°01' W 093°20'4 7.4
2018-Jun-14 10:30N 29°57' W 093°20'4 8.1
2018-Jun-14 10:00N 29°53' W 093°21'510.6
2018-Jun-14 09:30N 29°47' W 093°21'  

Dump ship's entire track history